createdAt,value
2022-12-09T00:00:57.886Z,96191.88
2022-12-09T00:03:27.244Z,96181.84
2022-12-09T00:05:53.828Z,96162.88
2022-12-09T00:08:20.400Z,96167.63
2022-12-09T00:10:46.979Z,96153.38
2022-12-09T00:13:13.575Z,96144.84
2022-12-09T00:15:41.031Z,96187.97
2022-12-09T00:18:07.591Z,96257.38
2022-12-09T00:20:34.280Z,96256.78
2022-12-09T00:23:00.845Z,96251.50
2022-12-09T00:25:27.643Z,96233.28
2022-12-09T00:27:54.180Z,96227.94
2022-12-09T00:30:20.600Z,96195.44
2022-12-09T00:32:47.297Z,96174.81
2022-12-09T00:35:14.131Z,96172.16
2022-12-09T00:37:40.857Z,96203.09
2022-12-09T00:40:08.245Z,96200.97
2022-12-09T00:42:35.022Z,96220.22
2022-12-09T00:45:01.873Z,96213.34
2022-12-09T00:47:28.868Z,96204.03
2022-12-09T00:49:55.339Z,96190.03
2022-12-09T00:52:21.782Z,96187.34
2022-12-09T00:54:48.230Z,96179.38
2022-12-09T00:57:14.698Z,96192.69
2022-12-09T00:59:41.356Z,96194.34
2022-12-09T01:02:11.868Z,96201.22
2022-12-09T01:04:38.656Z,96198.63
2022-12-09T01:07:05.590Z,96178.81
2022-12-09T01:09:34.226Z,96157.91
2022-12-09T01:12:00.875Z,96146.28
2022-12-09T01:14:27.453Z,96128.72
2022-12-09T01:16:54.141Z,96141.47
2022-12-09T01:19:20.799Z,96201.97
2022-12-09T01:21:47.290Z,96245.22
2022-12-09T01:24:14.183Z,96240.72
2022-12-09T01:26:40.841Z,96218.78
2022-12-09T01:29:07.480Z,96204.47
2022-12-09T01:31:34.272Z,96254.94
2022-12-09T01:34:01.070Z,96268.41
2022-12-09T01:36:29.098Z,96284.47
2022-12-09T01:38:57.024Z,96251.53
2022-12-09T01:41:24.107Z,96248.38
2022-12-09T01:44:08.772Z,96239.41
2022-12-09T01:46:35.490Z,96227.78
2022-12-09T01:49:02.270Z,96205.13
2022-12-09T01:51:30.455Z,96177.63
2022-12-09T01:53:57.542Z,96176.31
2022-12-09T01:56:42.124Z,96209.34
2022-12-09T01:59:10.495Z,96249.94
2022-12-09T02:01:39.213Z,96248.09
2022-12-09T02:04:06.125Z,96228.22
2022-12-09T02:06:35.314Z,96205.00
2022-12-09T02:09:02.121Z,96197.59
2022-12-09T02:11:29.032Z,96198.63
2022-12-09T02:14:01.561Z,96182.78
2022-12-09T02:16:29.955Z,96171.19
2022-12-09T02:19:14.641Z,96173.56
2022-12-09T02:21:56.961Z,96167.44
2022-12-09T02:24:29.573Z,96159.97
2022-12-09T02:27:01.149Z,96138.00
2022-12-09T02:29:50.553Z,96151.53
2022-12-09T02:32:35.507Z,96168.41
2022-12-09T02:35:05.597Z,96177.13
2022-12-09T02:37:37.755Z,96194.75
2022-12-09T02:40:08.525Z,96210.94
2022-12-09T02:42:36.696Z,96213.22
2022-12-09T02:45:05.750Z,96201.53
2022-12-09T02:47:34.156Z,96225.34
2022-12-09T02:50:06.374Z,96242.13
2022-12-09T02:52:34.904Z,96241.78
2022-12-09T02:55:03.179Z,96282.59
2022-12-09T02:57:30.810Z,96279.63
2022-12-09T02:59:58.380Z,96276.44
2022-12-09T03:02:31.514Z,96278.03
2022-12-09T03:05:10.426Z,96294.44
2022-12-09T03:07:55.828Z,96276.94
2022-12-09T03:10:35.654Z,96270.53
2022-12-09T03:13:10.305Z,96251.44
2022-12-09T03:15:39.005Z,96262.53
2022-12-09T03:18:07.818Z,96292.81
2022-12-09T03:20:36.397Z,96336.09
2022-12-09T03:23:03.591Z,96350.91
2022-12-09T03:25:45.068Z,96345.63
2022-12-09T03:28:18.345Z,96351.41
2022-12-09T03:30:46.023Z,96346.13
2022-12-09T03:33:14.402Z,96317.06
2022-12-09T03:35:53.019Z,96337.69
2022-12-09T03:38:21.219Z,96347.75
2022-12-09T03:40:51.397Z,96354.59
2022-12-09T03:43:32.449Z,96351.91
2022-12-09T03:46:00.752Z,96344.44
2022-12-09T03:48:27.947Z,96328.81
2022-12-09T03:51:03.379Z,96327.97
2022-12-09T03:53:43.198Z,96318.44
2022-12-09T03:56:15.934Z,96333.78
2022-12-09T03:58:44.760Z,96323.66
2022-12-09T04:01:12.338Z,96323.66
2022-12-09T04:03:39.075Z,96319.44
2022-12-09T04:06:05.838Z,96326.78
2022-12-09T04:08:33.035Z,96311.59
2022-12-09T04:10:59.770Z,96302.03
2022-12-09T04:13:26.217Z,96330.72
2022-12-09T04:15:52.936Z,96358.56
2022-12-09T04:18:19.403Z,96341.66
2022-12-09T04:20:46.053Z,96341.72
2022-12-09T04:23:12.673Z,96357.63
2022-12-09T04:25:39.230Z,96394.63
2022-12-09T04:28:05.826Z,96387.25
2022-12-09T04:30:32.386Z,96370.34
2022-12-09T04:32:59.511Z,96363.50
2022-12-09T04:35:26.408Z,96356.16
2022-12-09T04:37:52.863Z,96366.44
2022-12-09T04:40:23.648Z,96375.41
2022-12-09T04:42:50.634Z,96358.53
2022-12-09T04:45:17.950Z,96329.81
2022-12-09T04:47:44.831Z,96311.34
2022-12-09T04:50:11.982Z,96287.88
2022-12-09T04:52:38.757Z,96272.00
2022-12-09T04:55:05.633Z,96272.81
2022-12-09T04:57:32.602Z,96246.16
2022-12-09T05:00:00.588Z,96241.94
2022-12-09T05:02:27.443Z,96246.16
2022-12-09T05:04:54.207Z,96238.53
2022-12-09T05:07:21.297Z,96221.31
2022-12-09T05:09:48.299Z,96219.75
2022-12-09T05:12:15.256Z,96241.16
2022-12-09T05:14:42.190Z,96252.28
2022-12-09T05:17:08.913Z,96252.56
2022-12-09T05:19:35.593Z,96267.06
2022-12-09T05:22:02.450Z,96263.31
2022-12-09T05:24:29.104Z,96261.19
2022-12-09T05:26:55.929Z,96269.91
2022-12-09T05:29:23.657Z,96264.84
2022-12-09T05:31:51.774Z,96243.97
2022-12-09T05:34:18.972Z,96251.59
2022-12-09T05:36:46.168Z,96243.66
2022-12-09T05:39:12.833Z,96250.59
2022-12-09T05:41:39.546Z,96239.47
2022-12-09T05:44:06.381Z,96240.75
2022-12-09T05:46:33.089Z,96257.41
2022-12-09T05:48:59.860Z,96251.59
2022-12-09T05:51:31.180Z,96225.38
2022-12-09T05:54:00.471Z,96213.97
2022-12-09T05:56:27.604Z,96221.41
2022-12-09T05:58:54.877Z,96228.81
2022-12-09T06:01:23.764Z,96229.34
2022-12-09T06:03:51.280Z,96220.88
2022-12-09T06:06:19.986Z,96228.59
2022-12-09T06:08:47.285Z,96242.59
2022-12-09T06:11:18.955Z,96237.78
2022-12-09T06:13:45.917Z,96226.91
2022-12-09T06:16:13.018Z,96214.38
2022-12-09T06:18:40.218Z,96224.47
2022-12-09T06:21:08.086Z,96208.50
2022-12-09T06:23:36.009Z,96203.41
2022-12-09T06:26:05.110Z,96205.88
2022-12-09T06:28:32.125Z,96189.38
2022-12-09T06:30:58.701Z,96195.69
2022-12-09T06:33:53.094Z,96207.84
2022-12-09T06:36:12.046Z,96212.84
2022-12-09T06:38:38.856Z,96222.13
2022-12-09T06:41:06.472Z,96210.44
2022-12-09T06:43:33.457Z,96209.38
2022-12-09T06:46:00.046Z,96207.75
2022-12-09T06:48:26.661Z,96208.03
2022-12-09T06:50:54.434Z,96217.00
2022-12-09T06:53:21.085Z,96219.88
2022-12-09T06:55:48.818Z,96219.88
2022-12-09T06:58:15.634Z,96228.34
2022-12-09T07:00:43.780Z,96222.41
2022-12-09T07:03:11.943Z,96216.13
2022-12-09T07:05:39.259Z,96231.94
2022-12-09T07:08:06.163Z,96222.41
2022-12-09T07:10:33.452Z,96215.78
2022-12-09T07:13:00.515Z,96222.97
2022-12-09T07:15:27.022Z,96225.59
2022-12-09T07:17:53.611Z,96209.19
2022-12-09T07:20:20.790Z,96206.03
2022-12-09T07:22:47.322Z,96216.31
2022-12-09T07:25:14.238Z,96217.59
2022-12-09T07:27:41.698Z,96216.53
2022-12-09T07:30:08.835Z,96235.94
2022-12-09T07:32:35.449Z,96267.72
2022-12-09T07:35:02.182Z,96282.31
2022-12-09T07:37:29.015Z,96287.59
2022-12-09T07:39:55.876Z,96310.38
2022-12-09T07:42:22.837Z,96328.16
2022-12-09T07:44:50.399Z,96316.47
2022-12-09T07:47:17.224Z,96308.50
2022-12-09T07:49:44.023Z,96307.28
2022-12-09T07:52:12.628Z,96317.31
2022-12-09T07:54:39.261Z,96298.09
2022-12-09T07:57:06.166Z,96290.31
2022-12-09T07:59:33.011Z,96289.78
2022-12-09T08:02:05.634Z,96277.59
2022-12-09T08:04:35.312Z,96266.94
2022-12-09T08:07:02.500Z,96241.47
2022-12-09T08:09:29.416Z,96249.91
2022-12-09T08:11:56.578Z,96244.63
2022-12-09T08:14:23.437Z,96239.34
2022-12-09T08:16:50.020Z,96233.25
2022-12-09T08:19:17.089Z,96236.69
2022-12-09T08:21:45.502Z,96219.22
2022-12-09T08:24:13.981Z,96220.28
2022-12-09T08:26:41.270Z,96215.25
2022-12-09T08:29:09.423Z,96201.09
2022-12-09T08:31:41.733Z,96197.47
2022-12-09T08:34:09.102Z,96184.66
2022-12-09T08:36:36.967Z,96174.25
2022-12-09T08:39:04.985Z,96174.59
2022-12-09T08:41:36.884Z,96170.75
2022-12-09T08:44:07.342Z,96167.47
2022-12-09T08:46:34.718Z,96160.69
2022-12-09T08:49:01.935Z,96147.03
2022-12-09T08:51:29.789Z,96149.09
2022-12-09T08:53:59.767Z,96155.31
2022-12-09T08:56:27.686Z,96155.69
2022-12-09T08:58:54.953Z,96153.06
2022-12-09T09:01:24.308Z,96152.78
2022-12-09T09:03:52.270Z,96158.06
2022-12-09T09:06:20.053Z,96155.13
2022-12-09T09:08:47.019Z,96152.41
2022-12-09T09:11:16.008Z,96149.28
2022-12-09T09:13:46.057Z,96149.50
2022-12-09T09:16:14.989Z,96152.94
2022-12-09T09:18:41.969Z,96164.09
2022-12-09T09:21:09.793Z,96168.66
2022-12-09T09:23:36.712Z,96164.38
2022-12-09T09:26:03.542Z,96178.28
2022-12-09T09:28:31.727Z,96174.97
2022-12-09T09:30:59.700Z,96177.09
2022-12-09T09:33:26.647Z,96184.53
2022-12-09T09:35:59.298Z,96186.53
2022-12-09T09:38:27.655Z,96195.56
2022-12-09T09:40:54.691Z,96205.72
2022-12-09T09:43:24.431Z,96217.88
2022-12-09T09:45:52.976Z,96210.13
2022-12-09T09:48:23.889Z,96223.38
2022-12-09T09:51:03.746Z,96231.03
2022-12-09T09:53:32.132Z,96233.94
2022-12-09T09:56:00.197Z,96234.16
2022-12-09T09:58:45.088Z,96235.72
2022-12-09T10:01:16.715Z,96257.13
2022-12-09T10:03:44.812Z,96248.22
2022-12-09T10:06:17.867Z,96248.16
2022-12-09T10:09:25.108Z,96257.00
2022-12-09T10:12:00.912Z,96258.97
2022-12-09T10:14:27.869Z,96266.69
2022-12-09T10:17:04.922Z,96258.97
2022-12-09T10:19:35.282Z,96252.41
2022-12-09T10:22:34.512Z,96246.94
2022-12-09T10:25:11.863Z,96243.22
2022-12-09T10:27:43.333Z,96240.97
2022-12-09T10:30:15.810Z,96236.56
2022-12-09T10:32:43.220Z,96231.66
2022-12-09T10:35:18.589Z,96226.06
2022-12-09T10:37:45.991Z,96224.00
2022-12-09T10:40:13.288Z,96225.38
2022-12-09T10:43:11.009Z,96225.47
2022-12-09T10:48:44.861Z,96216.13
2022-12-09T10:51:29.274Z,96218.78
2022-12-09T10:54:02.683Z,96211.31
2022-12-09T10:56:34.069Z,96220.34
2022-12-09T10:59:19.582Z,96225.06
2022-12-09T11:01:52.813Z,96227.59
2022-12-09T11:04:27.285Z,96224.34
2022-12-09T11:06:59.845Z,96222.50
2022-12-09T11:09:29.890Z,96223.88
2022-12-09T11:11:56.833Z,96233.88
2022-12-09T11:14:39.785Z,96223.47
2022-12-09T11:17:17.613Z,96225.22
2022-12-09T11:19:47.015Z,96224.25
2022-12-09T11:22:43.326Z,96225.22
2022-12-09T11:25:13.241Z,96224.94
2022-12-09T11:27:43.396Z,96231.97
2022-12-09T11:30:15.796Z,96226.56
2022-12-09T11:32:52.067Z,96226.56
2022-12-09T11:35:20.546Z,96231.88
2022-12-09T11:37:47.927Z,96232.97
2022-12-09T11:40:18.365Z,96225.97
2022-12-09T11:42:50.918Z,96223.22
2022-12-09T11:45:27.246Z,96220.28
2022-12-09T11:50:49.673Z,96211.00
2022-12-09T11:53:19.202Z,96213.84
2022-12-09T11:55:48.240Z,96198.91
2022-12-09T11:58:21.466Z,96213.84
2022-12-09T12:00:57.274Z,96218.66
2022-12-09T12:03:27.863Z,96229.09
2022-12-09T12:05:55.257Z,96224.84
2022-12-09T12:08:27.545Z,96223.47
2022-12-09T12:10:59.713Z,96219.19
2022-12-09T12:13:29.270Z,96224.22
2022-12-09T12:15:55.697Z,96220.00
2022-12-09T12:18:23.170Z,96219.00
2022-12-09T12:20:58.749Z,96221.16
2022-12-09T12:23:48.573Z,96223.34
2022-12-09T12:26:33.913Z,96222.25
2022-12-09T12:29:27.870Z,96227.94
2022-12-09T12:32:04.059Z,96220.78
2022-12-09T12:34:37.322Z,96224.81
2022-12-09T12:37:05.465Z,96218.72
2022-12-09T12:39:34.765Z,96218.13
2022-12-09T12:42:13.492Z,96212.03
2022-12-09T12:45:08.165Z,96219.22
2022-12-09T12:47:44.207Z,96220.00
2022-12-09T12:50:29.200Z,96224.81
2022-12-09T12:52:56.820Z,96223.94
2022-12-09T12:55:36.686Z,96223.81
2022-12-09T12:58:14.338Z,96214.00
2022-12-09T13:00:50.690Z,96210.47
2022-12-09T13:03:17.747Z,96209.25
2022-12-09T13:05:47.083Z,96195.38
2022-12-09T13:08:13.731Z,96188.41
2022-12-09T13:10:43.060Z,96191.66
2022-12-09T13:13:21.679Z,96194.78
2022-12-09T13:15:52.994Z,96189.97
2022-12-09T13:18:23.133Z,96190.94
2022-12-09T13:20:50.958Z,96186.91
2022-12-09T13:23:23.579Z,96186.72
2022-12-09T13:25:59.120Z,96202.75
2022-12-09T13:28:47.171Z,96225.13
2022-12-09T13:31:14.695Z,96221.69
2022-12-09T13:33:41.295Z,96208.84
2022-12-09T13:36:08.029Z,96188.84
2022-12-09T13:38:40.603Z,96171.16
2022-12-09T13:41:25.870Z,96170.78
2022-12-09T13:44:12.543Z,96179.06
2022-12-09T13:46:39.906Z,96165.47
2022-12-09T13:49:24.611Z,96172.56
2022-12-09T13:51:52.186Z,96180.84
2022-12-09T13:54:21.035Z,96170.44
2022-12-09T13:57:05.023Z,96149.66
2022-12-09T13:59:31.565Z,96149.78
2022-12-09T14:02:12.989Z,96149.22
2022-12-09T14:05:01.209Z,96141.94
2022-12-09T14:07:47.221Z,96127.38
2022-12-09T14:10:52.330Z,96135.06
2022-12-09T14:13:36.910Z,96118.19
2022-12-09T14:16:18.686Z,96110.97
2022-12-09T14:18:45.778Z,96112.91
2022-12-09T14:21:18.370Z,96101.91
2022-12-09T14:24:03.402Z,96091.28
2022-12-09T14:26:38.183Z,96092.88
2022-12-09T14:29:05.193Z,96096.75
2022-12-09T14:31:47.050Z,96076.97
2022-12-09T14:34:36.847Z,96071.25
2022-12-09T14:37:09.434Z,96077.25
2022-12-09T14:39:42.314Z,96072.25
2022-12-09T14:42:25.359Z,96068.53
2022-12-09T14:45:08.956Z,96053.41
2022-12-09T14:47:40.319Z,96042.75
2022-12-09T14:50:09.788Z,96029.72
2022-12-09T14:52:36.551Z,96034.97
2022-12-09T14:55:06.928Z,96033.72
2022-12-09T14:57:37.963Z,96029.97
2022-12-09T15:00:10.159Z,96025.13
2022-12-09T15:02:36.963Z,96020.94
2022-12-09T15:05:03.975Z,96011.88
2022-12-09T15:07:31.948Z,96007.53
2022-12-09T15:10:04.835Z,95995.72
2022-12-09T15:12:31.379Z,95999.81
2022-12-09T15:15:00.514Z,95993.56
2022-12-09T15:17:34.985Z,95985.19
2022-12-09T15:20:01.836Z,95978.66
2022-12-09T15:22:30.572Z,95969.94
2022-12-09T15:24:57.241Z,95967.16
2022-12-09T15:27:24.744Z,95970.47
2022-12-09T15:29:51.861Z,95962.03
2022-12-09T15:32:22.880Z,95961.69
2022-12-09T15:34:49.430Z,95960.72
2022-12-09T15:37:18.007Z,95958.72
2022-12-09T15:39:52.121Z,95950.63
2022-12-09T15:42:23.051Z,95953.88
2022-12-09T15:44:53.494Z,95948.09
2022-12-09T15:47:28.415Z,95947.16
2022-12-09T15:50:00.954Z,95931.28
2022-12-09T15:52:33.443Z,95943.09
2022-12-09T15:55:06.798Z,95940.91
2022-12-09T15:57:34.497Z,95951.06
2022-12-09T16:00:01.827Z,95943.56
2022-12-09T16:02:30.055Z,95950.56
2022-12-09T16:05:00.698Z,95947.13
2022-12-09T16:07:27.594Z,95950.56
2022-12-09T16:10:03.393Z,95935.19
2022-12-09T16:12:31.959Z,95935.94
2022-12-09T16:14:58.503Z,95945.59
2022-12-09T16:17:29.599Z,95942.94
2022-12-09T16:19:56.472Z,95948.72
2022-12-09T16:22:30.194Z,95954.03
2022-12-09T16:25:35.326Z,95943.41
2022-12-09T16:28:03.213Z,95940.63
2022-12-09T16:30:31.395Z,95928.47
2022-12-09T16:32:59.069Z,95930.34
2022-12-09T16:35:40.542Z,95940.78
2022-12-09T16:38:09.760Z,95942.19
2022-12-09T16:40:45.676Z,95942.19
2022-12-09T16:43:19.000Z,95942.84
2022-12-09T16:45:55.826Z,95926.03
2022-12-09T16:48:23.693Z,95922.59
2022-12-09T16:50:56.513Z,95915.41
2022-12-09T16:53:31.761Z,95921.22
2022-12-09T16:56:02.955Z,95930.75
2022-12-09T16:58:30.543Z,95936.97
2022-12-09T17:00:58.791Z,95947.75
2022-12-09T17:03:31.158Z,95953.06
2022-12-09T17:05:57.599Z,95960.41
2022-12-09T17:08:24.163Z,95959.50
2022-12-09T17:10:50.686Z,95966.69
2022-12-09T17:13:17.174Z,95972.00
2022-12-09T17:15:43.756Z,95976.06
2022-12-09T17:18:10.852Z,95984.34
2022-12-09T17:20:38.447Z,95981.38
2022-12-09T17:23:05.020Z,95987.63
2022-12-09T17:25:33.328Z,95996.84
2022-12-09T17:28:03.991Z,96014.38
2022-12-09T17:30:30.759Z,96026.88
2022-12-09T17:32:58.869Z,96035.94
2022-12-09T17:35:25.374Z,96043.41
2022-12-09T17:37:51.823Z,96061.06
2022-12-09T17:40:18.375Z,96069.16
2022-12-09T17:42:44.849Z,96078.69
2022-12-09T17:45:11.289Z,96076.03
2022-12-09T17:47:37.831Z,96085.28
2022-12-09T17:50:04.625Z,96096.22
2022-12-09T17:52:31.242Z,96101.81
2022-12-09T17:54:59.827Z,96106.97
2022-12-09T17:57:26.311Z,96115.41
2022-12-09T17:59:52.782Z,96127.41
2022-12-09T18:02:20.178Z,96131.16
2022-12-09T18:04:46.980Z,96150.34
2022-12-09T18:07:13.420Z,96147.41
2022-12-09T18:09:39.859Z,96155.47
2022-12-09T18:12:07.085Z,96165.31
2022-12-09T18:14:33.541Z,96165.31
2022-12-09T18:17:00.855Z,96182.63
2022-12-09T18:19:27.470Z,96196.06
2022-12-09T18:21:54.233Z,96198.22
2022-12-09T18:24:20.887Z,96208.38
2022-12-09T18:26:47.317Z,96210.25
2022-12-09T18:29:15.910Z,96223.03
2022-12-09T18:31:45.800Z,96225.38
2022-12-09T18:34:12.343Z,96234.91
2022-12-09T18:36:38.772Z,96241.63
2022-12-09T18:39:05.751Z,96250.38
2022-12-09T18:41:32.412Z,96252.72
2022-12-09T18:44:00.769Z,96263.44
2022-12-09T18:46:29.534Z,96263.44
2022-12-09T18:49:03.672Z,96257.25
2022-12-09T18:51:31.487Z,96258.03
2022-12-09T18:54:01.123Z,96266.59
2022-12-09T18:56:27.889Z,96282.03
2022-12-09T18:59:10.210Z,96288.91
2022-12-09T19:01:45.253Z,96288.91
2022-12-09T19:04:16.385Z,96297.38
2022-12-09T19:06:43.830Z,96296.88
2022-12-09T19:09:11.889Z,96302.91
2022-12-09T19:11:39.228Z,96305.44
2022-12-09T19:14:06.762Z,96312.91
2022-12-09T19:16:33.650Z,96316.66
2022-12-09T19:19:05.447Z,96325.84
2022-12-09T19:21:33.912Z,96331.25
2022-12-09T19:24:00.528Z,96343.03
2022-12-09T19:26:29.014Z,96355.31
2022-12-09T19:28:57.074Z,96356.41
2022-12-09T19:31:29.835Z,96380.41
2022-12-09T19:34:00.654Z,96372.72
2022-12-09T19:36:28.522Z,96377.66
2022-12-09T19:38:55.445Z,96382.16
2022-12-09T19:41:22.141Z,96376.16
2022-12-09T19:43:48.660Z,96381.78
2022-12-09T19:46:15.444Z,96390.16
2022-12-09T19:48:47.782Z,96394.66
2022-12-09T19:51:15.683Z,96400.56
2022-12-09T19:53:42.210Z,96405.25
2022-12-09T19:56:12.246Z,96406.63
2022-12-09T19:58:39.522Z,96405.56
2022-12-09T20:01:15.901Z,96403.81
2022-12-09T20:03:43.671Z,96427.38
2022-12-09T20:06:11.264Z,96440.31
2022-12-09T20:08:37.997Z,96449.94
2022-12-09T20:11:05.200Z,96451.88
2022-12-09T20:13:32.310Z,96467.88
2022-12-09T20:16:02.748Z,96469.13
2022-12-09T20:18:29.274Z,96478.53
2022-12-09T20:20:55.829Z,96480.09
2022-12-09T20:23:22.470Z,96483.63
2022-12-09T20:25:48.977Z,96491.63
2022-12-09T20:28:15.487Z,96494.34
2022-12-09T20:30:41.982Z,96504.16
2022-12-09T20:33:08.775Z,96511.13
2022-12-09T20:35:38.135Z,96515.66
2022-12-09T20:38:05.116Z,96522.31
2022-12-09T20:40:32.737Z,96532.09
2022-12-09T20:43:00.491Z,96529.75
2022-12-09T20:45:26.932Z,96523.59
2022-12-09T20:47:53.414Z,96526.75
2022-12-09T20:50:19.891Z,96521.44
2022-12-09T20:52:46.682Z,96518.72
2022-12-09T20:55:13.128Z,96519.13
2022-12-09T20:57:39.590Z,96518.00
2022-12-09T21:00:06.683Z,96510.53
2022-12-09T21:02:39.636Z,96505.22
2022-12-09T21:05:09.886Z,96503.06
2022-12-09T21:07:36.381Z,96502.28
2022-12-09T21:10:02.894Z,96525.88
2022-12-09T21:12:29.358Z,96512.25
2022-12-09T21:14:55.814Z,96493.28
2022-12-09T21:17:22.290Z,96470.34
2022-12-09T21:19:48.808Z,96448.81
2022-12-09T21:22:15.246Z,96421.59
2022-12-09T21:24:41.823Z,96433.41
2022-12-09T21:27:08.274Z,96451.69
2022-12-09T21:29:34.802Z,96436.47
2022-12-09T21:32:01.735Z,96423.56
2022-12-09T21:34:28.381Z,96399.97
2022-12-09T21:36:55.782Z,96390.00
2022-12-09T21:39:22.254Z,96399.34
2022-12-09T21:41:48.683Z,96406.16
2022-12-09T21:44:18.224Z,96396.94
2022-12-09T21:46:44.701Z,96382.09
2022-12-09T21:49:11.860Z,96376.03
2022-12-09T21:51:38.492Z,96380.41
2022-12-09T21:54:05.308Z,96393.41
2022-12-09T21:56:35.033Z,96399.69
2022-12-09T21:59:01.931Z,96399.88
2022-12-09T22:01:31.239Z,96384.25
2022-12-09T22:03:59.538Z,96380.91
2022-12-09T22:06:26.296Z,96400.84
2022-12-09T22:08:52.869Z,96409.47
2022-12-09T22:11:21.173Z,96418.44
2022-12-09T22:13:47.697Z,96409.47
2022-12-09T22:16:15.572Z,96396.78
2022-12-09T22:18:42.509Z,96412.97
2022-12-09T22:21:26.928Z,96419.81
2022-12-09T22:23:54.824Z,96422.31
2022-12-09T22:26:21.751Z,96424.84
2022-12-09T22:28:48.233Z,96412.94
2022-12-09T22:31:22.476Z,96418.22
2022-12-09T22:33:49.719Z,96422.97
2022-12-09T22:36:18.469Z,96426.69
2022-12-09T22:38:44.985Z,96424.91
2022-12-09T22:41:15.705Z,96426.53
2022-12-09T22:43:42.775Z,96415.22
2022-12-09T22:46:09.241Z,96427.09
2022-12-09T22:48:35.846Z,96427.31
2022-12-09T22:51:03.898Z,96409.09
2022-12-09T22:53:30.480Z,96429.94
2022-12-09T22:55:56.944Z,96422.38
2022-12-09T22:58:25.622Z,96426.03
2022-12-09T23:00:54.905Z,96441.66
2022-12-09T23:03:21.591Z,96444.94
2022-12-09T23:05:48.201Z,96444.50
2022-12-09T23:08:14.880Z,96438.41
2022-12-09T23:10:41.792Z,96421.66
2022-12-09T23:13:08.274Z,96414.63
2022-12-09T23:15:35.223Z,96425.41
2022-12-09T23:18:01.948Z,96418.38
2022-12-09T23:20:28.728Z,96426.16
2022-12-09T23:22:55.227Z,96440.78
2022-12-09T23:25:21.704Z,96434.66
2022-12-09T23:27:48.134Z,96412.19
2022-12-09T23:30:14.618Z,96416.97
2022-12-09T23:32:41.065Z,96425.03
2022-12-09T23:35:08.317Z,96433.03
2022-12-09T23:37:34.974Z,96441.56
2022-12-09T23:40:01.870Z,96445.63
2022-12-09T23:42:28.394Z,96439.53
2022-12-09T23:44:54.973Z,96446.97
2022-12-09T23:47:21.595Z,96442.56
2022-12-09T23:49:48.184Z,96448.41
2022-12-09T23:52:14.687Z,96456.97
2022-12-09T23:54:41.316Z,96462.81
2022-12-09T23:57:07.966Z,96462.81
2022-12-09T23:59:34.419Z,96474.50
